Time;durP1;ratioP1;P1;durP2;ratioP2;P2;SDS_P1;SDS_P2;PMS_P1;PMS_P2;Temp;Humidity;BMP_temperature;BMP_pressure;BME280_temperature;BME280_humidity;BME280_pressure;Samples;Min_cycle;Max_cycle;Signal;HPM_P1;HPM_P2
2023/03/21 00:00:39;;;;;;;8.70;6.25;;;;;;;10.51;100.00;98706.59;4489136;32;20153;-67
2023/03/21 00:03:07;;;;;;;10.35;6.25;;;;;;;10.52;100.00;98703.03;4489152;31;20511;-67
2023/03/21 00:05:44;;;;;;;9.43;6.07;;;;;;;10.46;100.00;98705.25;4489310;31;20093;-67
2023/03/21 00:08:11;;;;;;;9.07;5.72;;;;;;;10.45;100.00;98689.69;4489212;32;20088;-67
2023/03/21 00:10:39;;;;;;;8.65;5.80;;;;;;;10.47;100.00;98701.66;4489215;31;20095;-67
2023/03/21 00:13:11;;;;;;;9.45;6.05;;;;;;;10.48;100.00;98692.84;4488961;31;20180;-67
2023/03/21 00:15:49;;;;;;;8.27;5.40;;;;;;;10.46;100.00;98686.06;4489326;32;20228;-67
2023/03/21 00:18:35;;;;;;;10.82;5.20;;;;;;;10.40;100.00;98687.47;4487965;32;20085;-67
2023/03/21 00:21:04;;;;;;;8.20;5.55;;;;;;;10.40;100.00;98687.47;4487649;32;20139;-67
2023/03/21 00:23:51;;;;;;;11.15;5.53;;;;;;;10.40;100.00;98684.00;4488953;31;20125;-67
2023/03/21 00:26:18;;;;;;;8.52;5.30;;;;;;;10.33;100.00;98683.75;4488912;31;20096;-67
2023/03/21 00:28:46;;;;;;;7.85;5.07;;;;;;;10.27;100.00;98682.47;4488935;32;20175;-67
2023/03/21 00:31:13;;;;;;;8.30;4.87;;;;;;;10.26;100.00;98670.31;4487431;31;20112;-67
2023/03/21 00:33:41;;;;;;;7.72;4.62;;;;;;;10.25;100.00;98673.09;4486115;32;20152;-67
2023/03/21 00:36:09;;;;;;;10.30;5.80;;;;;;;10.21;100.00;98671.72;4485919;31;20110;-67
2023/03/21 00:38:37;;;;;;;9.32;4.85;;;;;;;10.15;100.00;98667.03;4484688;32;20100;-67
2023/03/21 00:41:08;;;;;;;8.27;5.43;;;;;;;10.18;100.00;98669.38;4485721;31;20135;-67
2023/03/21 00:43:54;;;;;;;8.55;5.25;;;;;;;10.13;100.00;98659.31;4485720;31;20110;-67
2023/03/21 00:46:22;;;;;;;12.63;5.32;;;;;;;10.08;100.00;98656.28;4485820;31;20067;-67
2023/03/21 00:48:53;;;;;;;8.27;5.00;;;;;;;10.08;100.00;98657.13;4485876;32;20430;-67
2023/03/21 00:51:27;;;;;;;8.02;5.20;;;;;;;10.03;100.00;98658.47;4485843;31;20175;-67
2023/03/21 00:53:56;;;;;;;10.68;5.53;;;;;;;10.03;100.00;98658.47;4485601;31;20166;-67
2023/03/21 00:56:26;;;;;;;8.90;5.75;;;;;;;9.95;100.00;98656.56;4485898;31;20069;-67
2023/03/21 00:58:53;;;;;;;8.20;5.57;;;;;;;9.88;100.00;98661.47;4484407;32;20109;-67
2023/03/21 01:01:20;;;;;;;8.63;4.80;;;;;;;9.85;100.00;98660.94;4485771;31;20438;-67
2023/03/21 01:03:49;;;;;;;6.65;4.55;;;;;;;9.82;100.00;98653.34;4485898;31;20104;-67
2023/03/21 01:06:18;;;;;;;8.77;5.10;;;;;;;9.71;100.00;98657.72;4485888;31;20108;-67
2023/03/21 01:08:47;;;;;;;8.02;4.87;;;;;;;9.70;100.00;98656.06;4485899;32;20105;-67
2023/03/21 01:11:22;;;;;;;7.85;5.07;;;;;;;9.65;100.00;98647.81;4485315;31;20092;-67
2023/03/21 01:13:50;;;;;;;10.93;5.05;;;;;;;9.62;100.00;98653.31;4485577;31;20127;-67
2023/03/21 01:16:26;;;;;;;5.95;4.47;;;;;;;9.57;100.00;98652.91;4485776;31;20443;-67
2023/03/21 01:18:53;;;;;;;7.28;4.65;;;;;;;9.56;100.00;98651.22;4485864;31;20124;-67
2023/03/21 01:21:20;;;;;;;6.75;4.43;;;;;;;9.62;100.00;98653.31;4485478;31;20401;-67
2023/03/21 01:23:48;;;;;;;10.00;5.45;;;;;;;9.60;100.00;98655.25;4485375;32;20152;-67
2023/03/21 01:26:15;;;;;;;6.78;4.70;;;;;;;9.52;100.00;98662.91;4485365;31;20148;-67
2023/03/21 01:28:44;;;;;;;7.07;4.95;;;;;;;9.52;100.00;98655.06;4485471;31;20445;-67
2023/03/21 01:31:13;;;;;;;10.45;5.20;;;;;;;9.48;100.00;98653.66;4485425;31;20105;-67
2023/03/21 01:33:41;;;;;;;9.55;4.78;;;;;;;9.40;100.00;98651.72;4485331;31;20469;-67
2023/03/21 01:36:14;;;;;;;10.23;5.37;;;;;;;9.43;100.00;98650.63;4485377;31;20487;-67
2023/03/21 01:38:42;;;;;;;7.15;5.30;;;;;;;9.44;100.00;98652.31;4485795;31;20096;-67
2023/03/21 01:41:24;;;;;;;11.38;5.87;;;;;;;9.48;100.00;98658.91;4485574;31;20165;-67
2023/03/21 01:44:14;;;;;;;11.52;5.47;;;;;;;9.48;100.00;98656.28;4485547;31;20417;-67
2023/03/21 01:46:45;;;;;;;8.18;5.05;;;;;;;9.40;100.00;98654.34;4485597;31;20085;-67
2023/03/21 01:49:33;;;;;;;6.62;4.97;;;;;;;9.40;100.00;98656.94;4485449;32;20536;-67
2023/03/21 01:52:07;;;;;;;8.50;5.15;;;;;;;9.46;100.00;98666.87;4485600;31;20122;-67
2023/03/21 01:54:44;;;;;;;8.30;4.85;;;;;;;9.44;100.00;98657.53;4485561;32;20167;-67
2023/03/21 01:57:16;;;;;;;7.57;4.87;;;;;;;9.49;100.00;98665.78;4484265;32;20664;-67
2023/03/21 01:59:49;;;;;;;7.57;4.85;;;;;;;9.48;100.00;98669.34;4484310;32;20096;-67
2023/03/21 02:02:24;;;;;;;8.00;5.25;;;;;;;9.46;100.00;98673.91;4485252;31;20544;-67
2023/03/21 02:04:54;;;;;;;8.45;5.05;;;;;;;9.53;100.00;98662.78;4484232;32;20088;-67
2023/03/21 02:07:34;;;;;;;6.70;4.20;;;;;;;9.62;100.00;98661.16;4485576;31;20088;-67
2023/03/21 02:10:06;;;;;;;7.12;5.20;;;;;;;9.65;100.00;98660.88;4485701;31;20088;-67
2023/03/21 02:12:33;;;;;;;10.77;5.93;;;;;;;9.63;100.00;98660.22;4483754;32;20095;-67
2023/03/21 02:15:01;;;;;;;8.27;5.30;;;;;;;9.69;100.00;98662.28;4485445;31;20099;-67
2023/03/21 02:17:58;;;;;;;7.15;4.97;;;;;;;9.70;100.00;98671.75;4485266;31;20722;-67
2023/03/21 02:20:27;;;;;;;9.23;5.80;;;;;;;9.71;100.00;98670.00;4481463;32;20124;-67
2023/03/21 02:23:15;;;;;;;6.85;4.90;;;;;;;9.69;100.00;98667.50;4483988;32;20108;-67
2023/03/21 02:25:54;;;;;;;9.07;4.75;;;;;;;9.65;100.00;98660.06;4484912;31;20163;-67
2023/03/21 02:28:39;;;;;;;7.35;4.97;;;;;;;9.59;100.00;98662.25;4485397;31;20088;-67
2023/03/21 02:31:46;;;;;;;7.57;4.90;;;;;;;9.70;100.00;98663.09;4483671;32;20156;-67
2023/03/21 02:34:22;;;;;;;9.65;5.05;;;;;;;9.60;100.00;98663.09;4423341;32;20125;-67
2023/03/21 02:37:07;;;;;;;7.57;5.10;;;;;;;9.57;100.00;98658.94;4436175;32;20117;-67
2023/03/21 02:39:58;;;;;;;6.62;4.22;;;;;;;9.57;100.00;98660.75;4436438;32;20089;-67
2023/03/21 02:42:43;;;;;;;8.77;5.47;;;;;;;9.49;100.00;98655.34;4423373;32;20132;-67
2023/03/21 02:45:26;;;;;;;7.05;4.95;;;;;;;9.53;100.00;98656.72;4436301;32;20105;-67
2023/03/21 02:48:03;;;;;;;11.68;5.70;;;;;;;9.51;100.00;98661.28;4423247;32;20135;-67
2023/03/21 02:50:42;;;;;;;9.73;5.20;;;;;;;9.53;100.00;98659.34;4423603;32;20463;-67
2023/03/21 02:53:12;;;;;;;7.72;4.57;;;;;;;9.51;100.00;98658.66;4435798;32;20106;-67
2023/03/21 02:55:41;;;;;;;6.22;5.00;;;;;;;9.50;100.00;98659.63;4422598;32;20192;-67
2023/03/21 02:58:11;;;;;;;10.48;4.97;;;;;;;9.54;100.00;98664.44;4423412;32;20228;-67
2023/03/21 03:00:42;;;;;;;8.98;4.95;;;;;;;9.48;100.00;98658.91;4423439;32;20093;-67
2023/03/21 03:03:11;;;;;;;8.20;5.07;;;;;;;9.47;100.00;98658.09;4435856;32;20128;-67
2023/03/21 03:05:55;;;;;;;8.60;5.25;;;;;;;9.51;100.00;98663.91;4435671;32;20096;-67
2023/03/21 03:08:33;;;;;;;8.40;5.25;;;;;;;9.40;100.00;98660.41;4423136;32;20107;-67
2023/03/21 03:11:27;;;;;;;8.75;5.37;;;;;;;9.29;100.00;98665.72;4483230;32;20083;-67
2023/03/21 03:14:11;;;;;;;6.53;4.80;;;;;;;9.23;100.00;98661.03;4484488;31;20481;-67
2023/03/21 03:17:33;;;;;;;7.57;5.22;;;;;;;9.17;100.00;98666.78;4484433;31;20092;-67
2023/03/21 03:20:37;;;;;;;7.60;4.95;;;;;;;8.97;100.00;98664.06;4480063;32;20436;-67
2023/03/21 03:23:08;;;;;;;9.02;5.37;;;;;;;9.01;100.00;98657.63;4484390;31;20136;-67
2023/03/21 03:25:55;;;;;;;10.27;5.60;;;;;;;8.99;100.00;98662.16;4484765;31;20088;-67
2023/03/21 03:28:26;;;;;;;8.65;5.32;;;;;;;9.00;100.00;98666.41;4483074;32;20123;-67
2023/03/21 03:30:55;;;;;;;7.07;5.00;;;;;;;9.00;100.00;98663.78;4483521;32;20107;-67
2023/03/21 03:33:39;;;;;;;8.68;4.85;;;;;;;8.98;100.00;98662.28;4483496;32;20418;-67
2023/03/21 03:36:10;;;;;;;8.85;4.93;;;;;;;9.00;100.00;98666.41;4484221;31;20153;-67
2023/03/21 03:38:56;;;;;;;8.52;4.62;;;;;;;9.06;100.00;98660.66;4483613;32;20089;-67
2023/03/21 03:41:26;;;;;;;8.38;5.05;;;;;;;9.00;100.00;98658.56;4483167;32;20144;-67
2023/03/21 03:43:58;;;;;;;10.52;4.93;;;;;;;8.98;100.00;98660.50;4484431;31;20159;-67
2023/03/21 03:46:32;;;;;;;7.22;5.20;;;;;;;8.97;100.00;98656.22;4482692;32;20136;-67
2023/03/21 03:49:21;;;;;;;8.60;4.97;;;;;;;8.98;100.00;98646.63;4482873;32;20096;-67
2023/03/21 03:51:53;;;;;;;6.82;4.18;;;;;;;9.02;100.00;98650.59;4483141;32;20092;-67
2023/03/21 03:54:26;;;;;;;7.72;4.87;;;;;;;8.95;100.00;98650.31;4483090;32;20085;-67
2023/03/21 03:56:54;;;;;;;7.62;4.57;;;;;;;9.02;100.00;98653.22;4482939;32;20789;-67
2023/03/21 03:59:23;;;;;;;7.37;5.07;;;;;;;9.08;100.00;98646.66;4483084;32;20117;-67
2023/03/21 04:01:50;;;;;;;6.62;4.12;;;;;;;9.09;100.00;98653.53;4483993;31;20096;-67
2023/03/21 04:04:21;;;;;;;8.88;4.93;;;;;;;9.11;100.00;98656.84;4484188;31;20088;-67
2023/03/21 04:06:50;;;;;;;6.47;4.62;;;;;;;9.13;100.00;98654.91;4483451;32;20200;-67
2023/03/21 04:09:18;;;;;;;6.72;4.47;;;;;;;9.17;100.00;98662.38;4486493;32;20084;-67
2023/03/21 04:11:57;;;;;;;8.48;4.78;;;;;;;9.21;100.00;98650.69;4486000;31;20092;-67
2023/03/21 04:14:25;;;;;;;11.35;4.80;;;;;;;9.23;100.00;98654.03;4486330;31;20552;-67
2023/03/21 04:17:04;;;;;;;9.90;4.85;;;;;;;9.24;100.00;98657.47;4486302;31;20550;-67
2023/03/21 04:19:32;;;;;;;7.43;4.78;;;;;;;9.22;100.00;98648.94;4486098;32;20112;-67
2023/03/21 04:22:00;;;;;;;7.43;4.75;;;;;;;9.17;100.00;98656.31;4486139;32;20084;-67
2023/03/21 04:24:27;;;;;;;7.80;4.57;;;;;;;9.20;100.00;98662.09;4485957;31;20149;-67
2023/03/21 04:26:55;;;;;;;7.57;5.55;;;;;;;9.19;100.00;98660.47;4485983;32;20153;-67
2023/03/21 04:29:22;;;;;;;11.38;5.62;;;;;;;9.14;100.00;98667.84;4486099;32;20179;-67
2023/03/21 04:31:52;;;;;;;8.35;5.50;;;;;;;9.14;100.00;98662.63;4486424;31;20137;-67
2023/03/21 04:34:22;;;;;;;7.43;5.20;;;;;;;9.17;100.00;98669.38;4485895;31;20125;-67
2023/03/21 04:36:52;;;;;;;9.73;5.55;;;;;;;9.14;100.00;98654.78;4486132;31;20080;-67
2023/03/21 04:39:20;;;;;;;11.20;5.30;;;;;;;9.09;100.00;98656.97;4485957;31;20096;-67
2023/03/21 04:41:48;;;;;;;10.25;5.32;;;;;;;9.11;100.00;98654.22;4486190;31;20111;-67
2023/03/21 04:44:16;;;;;;;9.50;6.22;;;;;;;9.07;100.00;98661.50;4485890;32;20153;-67
2023/03/21 04:46:44;;;;;;;9.05;5.45;;;;;;;9.04;100.00;98657.38;4486198;31;20152;-67
2023/03/21 04:49:12;;;;;;;9.15;5.53;;;;;;;9.09;100.00;98658.78;4486065;32;20100;-67
2023/03/21 04:51:43;;;;;;;8.55;5.57;;;;;;;9.04;100.00;98667.81;4486220;32;20128;-67
2023/03/21 04:54:12;;;;;;;8.48;5.50;;;;;;;9.08;100.00;98662.34;4485840;31;20080;-67
2023/03/21 04:56:41;;;;;;;10.25;5.87;;;;;;;8.99;100.00;98656.94;4485845;32;20196;-67
2023/03/21 04:59:13;;;;;;;8.65;5.62;;;;;;;9.02;100.00;98661.91;4485498;31;20108;-67
2023/03/21 05:01:42;;;;;;;8.65;5.57;;;;;;;9.05;100.00;98663.41;4485476;31;20175;-67
2023/03/21 05:04:11;;;;;;;9.05;5.75;;;;;;;9.02;100.00;98658.44;4485643;31;20100;-67
2023/03/21 05:06:41;;;;;;;9.30;5.50;;;;;;;9.00;100.00;98658.56;4485221;31;20127;-67
2023/03/21 05:09:08;;;;;;;8.50;5.55;;;;;;;9.06;100.00;98662.47;4481291;32;81992;-66
2023/03/21 05:11:37;;;;;;;8.40;5.62;;;;;;;9.10;100.00;98665.63;4484214;32;20100;-67
2023/03/21 05:14:08;;;;;;;11.65;5.80;;;;;;;9.09;100.00;98671.84;4485625;31;20116;-67
2023/03/21 05:16:47;;;;;;;10.65;6.03;;;;;;;9.12;100.00;98675.00;4485742;31;20077;-67
2023/03/21 05:19:16;;;;;;;8.18;5.32;;;;;;;9.13;100.00;98681.06;4484707;31;20536;-67
2023/03/21 05:21:44;;;;;;;8.55;5.97;;;;;;;9.24;100.00;98675.75;4480556;31;20122;-67
2023/03/21 05:24:20;;;;;;;10.77;5.95;;;;;;;9.32;100.00;98673.28;4480178;31;20131;-67
2023/03/21 05:26:49;;;;;;;7.85;5.25;;;;;;;9.41;100.00;98669.88;4477912;32;20123;-67
2023/03/21 05:29:18;;;;;;;9.73;5.80;;;;;;;9.45;100.00;98661.78;4474987;32;20496;-68
2023/03/21 05:31:49;;;;;;;9.88;6.30;;;;;;;9.56;100.00;98672.16;4478489;32;20119;-67
2023/03/21 05:34:16;;;;;;;11.35;5.80;;;;;;;9.57;100.00;98669.41;4478157;32;20085;-67
2023/03/21 05:36:43;;;;;;;8.43;5.35;;;;;;;9.66;100.00;98683.47;4480534;32;20124;-67
2023/03/21 05:39:11;;;;;;;7.78;5.30;;;;;;;9.67;100.00;98673.84;4481370;32;20108;-67
2023/03/21 05:41:38;;;;;;;12.00;5.55;;;;;;;9.65;100.00;98686.22;4474939;32;20155;-67
2023/03/21 05:44:06;;;;;;;10.23;5.62;;;;;;;9.84;100.00;98682.81;4475772;32;20088;-68
2023/03/21 05:46:34;;;;;;;9.25;6.18;;;;;;;9.89;100.00;98681.47;4482618;32;20150;-67
2023/03/21 05:49:02;;;;;;;7.87;5.78;;;;;;;10.08;100.00;98674.59;4482001;32;20160;-67
2023/03/21 05:51:29;;;;;;;7.45;5.43;;;;;;;10.16;100.00;98680.00;4484239;31;20096;-67
2023/03/21 05:53:58;;;;;;;10.10;6.10;;;;;;;10.17;100.00;98683.44;4484725;31;20096;-67
2023/03/21 05:56:25;;;;;;;7.30;5.22;;;;;;;10.15;100.00;98683.56;4484418;32;20114;-66
2023/03/21 05:58:53;;;;;;;7.43;5.30;;;;;;;10.17;100.00;98686.03;4485039;31;20092;-66
2023/03/21 06:01:24;;;;;;;9.27;5.15;;;;;;;10.05;100.00;98686.19;4484848;31;20101;-66
2023/03/21 06:03:52;;;;;;;8.38;4.93;;;;;;;10.15;100.00;98687.97;4485235;31;20097;-66
2023/03/21 06:06:19;;;;;;;7.62;4.95;;;;;;;10.13;100.00;98686.31;4483679;31;20127;-66
2023/03/21 06:08:47;;;;;;;6.80;4.85;;;;;;;10.29;100.00;98685.78;4482126;31;20518;-66
2023/03/21 06:11:22;;;;;;;9.45;5.28;;;;;;;10.36;100.00;98691.31;4483532;31;20088;-66
2023/03/21 06:13:50;;;;;;;7.68;5.18;;;;;;;10.67;100.00;98696.41;4481047;32;20449;-66
2023/03/21 06:16:20;;;;;;;8.65;4.90;;;;;;;10.90;100.00;98694.31;4479778;31;20544;-66
2023/03/21 06:18:48;;;;;;;7.35;5.45;;;;;;;10.99;100.00;98696.09;4479927;32;20194;-66
2023/03/21 06:21:16;;;;;;;7.25;4.93;;;;;;;11.03;100.00;98699.25;4476820;31;20148;-66
2023/03/21 06:23:43;;;;;;;10.18;5.28;;;;;;;11.07;100.00;98702.44;4480256;31;20118;-66
2023/03/21 06:26:10;;;;;;;8.18;5.47;;;;;;;11.01;100.00;98701.19;4478808;31;20480;-66
2023/03/21 06:28:38;;;;;;;8.45;5.87;;;;;;;11.14;100.00;98701.72;4475799;32;20143;-67
2023/03/21 06:31:06;;;;;;;7.97;5.47;;;;;;;11.19;100.00;98704.72;4468384;32;20093;-65
2023/03/21 06:33:34;;;;;;;9.45;4.97;;;;;;;11.14;100.00;98701.72;4479493;31;20115;-66
2023/03/21 06:36:01;;;;;;;7.85;5.15;;;;;;;11.29;100.00;98709.94;4482981;32;20921;-66
2023/03/21 06:38:30;;;;;;;8.38;5.47;;;;;;;11.21;100.00;98711.63;4484523;32;20127;-67
2023/03/21 06:40:57;;;;;;;7.90;4.55;;;;;;;11.11;100.00;98703.78;4480896;31;20477;-67
2023/03/21 06:43:27;;;;;;;6.65;4.90;;;;;;;11.23;100.00;98705.25;4482862;31;20100;-67
2023/03/21 06:45:54;;;;;;;9.20;5.37;;;;;;;11.15;100.00;98708.59;4479570;31;20122;-67
2023/03/21 06:48:22;;;;;;;5.72;4.35;;;;;;;11.33;99.91;98707.88;4481449;32;20115;-67
2023/03/21 06:50:51;;;;;;;6.75;4.68;;;;;;;11.50;99.10;98717.59;4484041;31;20100;-67
2023/03/21 06:53:23;;;;;;;7.20;4.20;;;;;;;11.42;98.04;98706.19;4479372;31;20124;-67
2023/03/21 06:55:53;;;;;;;8.02;4.78;;;;;;;11.48;97.48;98709.03;4479528;31;20088;-67
2023/03/21 06:58:22;;;;;;;7.15;4.68;;;;;;;11.41;97.51;98713.19;4481451;32;20088;-68
2023/03/21 07:00:49;;;;;;;7.03;5.37;;;;;;;11.56;97.29;98712.75;4472202;31;20100;-67
2023/03/21 07:03:18;;;;;;;7.03;5.50;;;;;;;11.45;98.32;98714.56;4472859;32;20100;-66
2023/03/21 07:05:46;;;;;;;8.60;4.72;;;;;;;11.50;98.72;98716.75;4474045;31;20246;-66
2023/03/21 07:08:14;;;;;;;8.70;5.00;;;;;;;11.59;97.80;98710.66;4469409;32;20112;-67
2023/03/21 07:10:43;;;;;;;8.85;5.03;;;;;;;11.68;98.97;98711.59;4468095;32;20114;-67
2023/03/21 07:13:12;;;;;;;9.02;4.68;;;;;;;11.81;98.41;98719.09;4467764;32;20115;-67
2023/03/21 07:15:40;;;;;;;8.05;4.70;;;;;;;11.88;96.22;98712.28;4468693;31;20504;-67
2023/03/21 07:18:08;;;;;;;6.85;4.22;;;;;;;11.88;96.81;98714.91;4469152;32;20108;-66
2023/03/21 07:20:37;;;;;;;7.95;4.93;;;;;;;11.96;94.17;98732.59;4467823;31;20123;-67
2023/03/21 07:23:06;;;;;;;7.28;5.00;;;;;;;11.81;95.36;98725.19;4466793;32;20097;-68
2023/03/21 07:25:33;;;;;;;10.57;5.72;;;;;;;11.74;95.79;98726.75;4465031;31;20463;-65
2023/03/21 07:28:01;;;;;;;9.40;5.65;;;;;;;12.09;94.25;98733.06;4472303;32;20104;-67
2023/03/21 07:30:29;;;;;;;9.27;4.80;;;;;;;12.23;93.67;98723.84;4466966;31;20109;-67
2023/03/21 07:32:56;;;;;;;7.57;5.43;;;;;;;12.30;92.67;98740.69;4471251;32;20077;-67
2023/03/21 07:35:24;;;;;;;15.00;7.53;;;;;;;12.20;93.62;98737.28;4468434;31;20188;-66
2023/03/21 07:37:52;;;;;;;7.95;5.45;;;;;;;12.22;92.35;98736.19;4467502;31;20476;-67
2023/03/21 07:40:19;;;;;;;7.18;4.72;;;;;;;12.35;92.47;98735.78;4466767;32;20116;-66
2023/03/21 07:42:49;;;;;;;6.93;4.90;;;;;;;12.43;91.77;98720.13;4461415;32;20529;-66
2023/03/21 07:45:24;;;;;;;5.70;4.18;;;;;;;12.58;90.30;98717.81;4474214;32;20122;-66
2023/03/21 07:47:52;;;;;;;7.90;4.80;;;;;;;12.69;89.26;98724.62;4474082;31;20446;-65
2023/03/21 07:50:20;;;;;;;8.98;5.12;;;;;;;12.90;87.45;98726.06;4470856;32;20100;-66
2023/03/21 07:52:47;;;;;;;8.75;4.72;;;;;;;13.01;86.35;98717.16;4466224;32;20401;-65
2023/03/21 07:55:16;;;;;;;8.10;4.20;;;;;;;13.16;85.48;98726.13;4466229;32;20157;-66
2023/03/21 07:57:43;;;;;;;8.50;4.95;;;;;;;13.14;83.91;98723.62;4468085;32;20643;-65
2023/03/21 08:00:12;;;;;;;7.12;5.00;;;;;;;13.18;83.19;98718.06;4471308;32;20568;-66
2023/03/21 08:02:41;;;;;;;8.77;4.43;;;;;;;13.28;83.02;98722.25;4470488;31;20109;-67
2023/03/21 08:05:10;;;;;;;7.30;4.53;;;;;;;13.32;82.60;98726.22;4469988;32;20147;-65
2023/03/21 08:07:37;;;;;;;8.07;4.85;;;;;;;13.19;82.48;98720.53;4469671;31;20144;-67
2023/03/21 08:10:05;;;;;;;6.70;4.35;;;;;;;13.38;81.05;98723.97;4466927;32;20115;-67
2023/03/21 08:12:32;;;;;;;8.27;4.32;;;;;;;13.43;80.59;98721.69;4470695;31;20119;-67
2023/03/21 08:14:59;;;;;;;6.53;4.55;;;;;;;13.69;78.89;98724.28;4470502;32;20096;-67
2023/03/21 08:17:28;;;;;;;6.40;4.40;;;;;;;13.80;79.73;98729.25;4469030;32;20105;-67
2023/03/21 08:19:55;;;;;;;8.35;4.78;;;;;;;13.94;77.73;98738.34;4472627;32;20110;-67
2023/03/21 08:22:23;;;;;;;9.70;5.50;;;;;;;14.04;77.19;98743.50;4473668;31;20127;-67
2023/03/21 08:24:51;;;;;;;8.68;5.80;;;;;;;13.89;76.79;98730.13;4466766;31;20151;-67
2023/03/21 08:27:19;;;;;;;5.90;4.55;;;;;;;14.04;76.04;98738.22;4469351;32;20111;-67
2023/03/21 08:29:46;;;;;;;6.75;4.95;;;;;;;14.13;76.53;98729.38;4470210;32;20139;-68
2023/03/21 08:32:17;;;;;;;5.45;4.40;;;;;;;14.45;74.36;98733.06;4468372;31;20164;-68
2023/03/21 08:34:45;;;;;;;7.78;4.97;;;;;;;14.69;72.31;98734.91;4470006;31;20096;-68
2023/03/21 08:37:12;;;;;;;6.30;4.18;;;;;;;14.98;72.00;98728.31;4468325;32;20512;-67
2023/03/21 08:39:40;;;;;;;6.30;4.32;;;;;;;14.95;69.09;98738.38;4473097;31;20105;-68
2023/03/21 08:42:07;;;;;;;6.57;4.75;;;;;;;14.72;69.79;98739.03;4465837;31;20159;-67
2023/03/21 08:44:34;;;;;;;6.93;4.60;;;;;;;14.92;70.07;98733.44;4465930;31;20138;-68
2023/03/21 08:47:02;;;;;;;7.72;5.15;;;;;;;14.77;69.12;98733.28;4469037;32;20112;-68
2023/03/21 08:49:29;;;;;;;6.28;4.20;;;;;;;15.01;70.17;98727.97;4467086;32;20096;-69
2023/03/21 08:51:57;;;;;;;7.57;5.28;;;;;;;14.61;67.98;98742.81;4471759;31;20159;-68
2023/03/21 08:54:25;;;;;;;6.72;4.60;;;;;;;14.34;70.83;98726.28;4466822;32;20565;-69
2023/03/21 08:56:52;;;;;;;7.78;5.65;;;;;;;14.27;71.14;98725.28;4473072;32;20446;-69
2023/03/21 08:59:19;;;;;;;6.60;4.70;;;;;;;14.29;72.40;98739.12;4472642;32;20844;-69
2023/03/21 09:01:47;;;;;;;9.70;6.30;;;;;;;14.05;72.81;98726.72;4476995;31;20092;-69
2023/03/21 09:04:17;;;;;;;7.40;5.20;;;;;;;14.09;73.70;98729.84;4470965;31;20458;-68
2023/03/21 09:06:48;;;;;;;7.53;4.50;;;;;;;14.09;73.16;98730.66;4468551;32;20146;-68
2023/03/21 09:09:16;;;;;;;10.32;5.30;;;;;;;13.99;74.69;98733.44;4470211;32;20164;-68
2023/03/21 09:11:44;;;;;;;8.38;5.30;;;;;;;14.11;74.82;98738.41;4461772;31;20107;-67
2023/03/21 09:14:11;;;;;;;8.50;5.70;;;;;;;14.32;74.19;98733.53;4464649;32;20164;-68
2023/03/21 09:16:38;;;;;;;8.00;5.53;;;;;;;14.32;73.28;98732.69;4469718;32;20123;-68
2023/03/21 09:19:07;;;;;;;9.52;4.78;;;;;;;14.41;74.09;98728.28;4464609;32;20489;-67
2023/03/21 09:21:34;;;;;;;7.15;5.10;;;;;;;14.64;73.64;98731.97;4469486;31;20576;-68
2023/03/21 09:24:05;;;;;;;8.48;5.65;;;;;;;14.50;70.42;98729.91;4467698;31;20529;-68
2023/03/21 09:26:32;;;;;;;8.75;5.72;;;;;;;14.31;73.12;98736.34;4469024;32;20172;-68
2023/03/21 09:28:59;;;;;;;7.05;5.47;;;;;;;14.56;71.96;98721.34;4474198;31;20160;-68
2023/03/21 09:31:27;;;;;;;8.43;5.55;;;;;;;14.27;72.37;98735.81;4471056;31;20487;-69
2023/03/21 09:33:56;;;;;;;8.70;5.60;;;;;;;14.23;72.46;98737.16;4470825;32;20152;-69
2023/03/21 09:36:26;;;;;;;10.05;5.43;;;;;;;14.43;73.18;98732.41;4465865;32;20096;-68
2023/03/21 09:38:55;;;;;;;10.00;5.93;;;;;;;14.47;69.33;98733.69;4470333;31;20446;-67
2023/03/21 09:41:44;;;;;;;10.50;5.68;;;;;;;14.49;71.14;98744.09;4468753;31;20138;-70
2023/03/21 09:44:24;;;;;;;9.20;5.15;;;;;;;14.45;71.61;98734.88;4467651;32;20154;-70
2023/03/21 09:46:59;;;;;;;8.38;5.95;;;;;;;14.38;71.04;98732.88;4467119;32;20088;-68
2023/03/21 09:49:33;;;;;;;10.23;5.87;;;;;;;14.36;72.06;98721.66;4470367;31;20473;-67
2023/03/21 09:52:04;;;;;;;7.62;5.10;;;;;;;14.39;71.62;98725.78;4471705;32;20470;-68
2023/03/21 09:54:43;;;;;;;8.35;5.53;;;;;;;14.37;72.88;98730.41;4469489;32;20108;-68
2023/03/21 09:57:32;;;;;;;10.48;6.18;;;;;;;14.17;71.99;98719.31;4471358;32;20097;-68
2023/03/21 10:00:14;;;;;;;23.65;4.93;;;;;;;14.46;70.63;98721.53;4470671;32;20104;-68
2023/03/21 10:02:50;;;;;;;6.05;3.45;;;;;;;14.70;67.83;98722.53;4474820;32;20083;-68
2023/03/21 10:05:26;;;;;;;6.75;4.50;;;;;;;14.68;63.55;98722.72;4469762;32;20096;-68
2023/03/21 10:07:57;;;;;;;6.80;3.75;;;;;;;14.63;64.07;98714.47;4471554;31;20119;-68
2023/03/21 10:10:34;;;;;;;9.75;3.50;;;;;;;15.01;62.20;98714.78;4473224;32;20519;-68
2023/03/21 10:13:05;;;;;;;6.28;3.62;;;;;;;14.86;61.10;98724.38;4469577;32;20092;-68
2023/03/21 10:15:32;;;;;;;5.12;3.45;;;;;;;14.96;62.10;98716.25;4468395;32;20162;-67
2023/03/21 10:18:02;;;;;;;5.35;3.10;;;;;;;14.94;60.79;98721.72;4470375;31;20172;-68
2023/03/21 10:20:35;;;;;;;6.43;3.67;;;;;;;15.04;60.39;98706.53;4469751;32;20093;-69
2023/03/21 10:23:05;;;;;;;5.00;3.20;;;;;;;15.34;60.38;98706.00;4473538;32;20157;-69
2023/03/21 10:25:40;;;;;;;6.87;4.35;;;;;;;15.39;61.02;98707.13;4467622;32;20096;-69
2023/03/21 10:28:14;;;;;;;5.28;2.75;;;;;;;15.31;62.16;98701.06;4470312;31;20105;-69
2023/03/21 10:30:51;;;;;;;19.33;3.37;;;;;;;15.49;56.51;98709.56;4473828;32;20095;-69
2023/03/21 10:33:23;;;;;;;7.28;2.30;;;;;;;15.65;56.41;98705.22;4470770;32;20130;-68
2023/03/21 10:35:55;;;;;;;4.15;2.70;;;;;;;15.48;54.95;98707.09;4469697;32;20196;-68
2023/03/21 10:38:24;;;;;;;6.03;3.42;;;;;;;15.64;56.80;98706.22;4469437;31;20112;-69
2023/03/21 10:40:52;;;;;;;7.43;3.62;;;;;;;15.59;57.36;98709.38;4472191;32;20136;-70
2023/03/21 10:43:26;;;;;;;6.12;4.03;;;;;;;15.29;58.06;98695.94;4467568;32;20532;-69
2023/03/21 10:45:54;;;;;;;5.90;3.70;;;;;;;15.50;59.47;98705.91;4470635;32;20097;-70
2023/03/21 10:48:23;;;;;;;5.45;1.92;;;;;;;15.48;58.75;98701.81;4475706;31;20084;-69
2023/03/21 10:50:54;;;;;;;4.75;1.60;;;;;;;15.84;51.93;98701.38;4482103;31;20092;-69
2023/03/21 10:53:31;;;;;;;9.05;2.55;;;;;;;15.79;51.04;98694.78;4467354;32;20415;-65
2023/03/21 10:55:59;;;;;;;3.45;2.33;;;;;;;15.94;52.34;98692.25;4476356;32;20160;-68
2023/03/21 10:58:32;;;;;;;3.35;2.15;;;;;;;15.88;53.29;98681.53;4479118;31;20151;-68
2023/03/21 11:01:05;;;;;;;2.72;1.65;;;;;;;15.99;53.47;98689.09;4482719;31;20089;-67
2023/03/21 11:03:38;;;;;;;3.95;2.22;;;;;;;16.26;51.26;98684.28;4482854;32;20080;-70
2023/03/21 11:06:11;;;;;;;2.10;1.37;;;;;;;16.14;51.55;98681.22;4483283;32;20104;-67
2023/03/21 11:08:46;;;;;;;3.10;1.70;;;;;;;16.08;50.69;98674.81;4479785;31;20139;-67
2023/03/21 11:11:52;;;;;;;3.08;2.15;;;;;;;16.00;51.83;98672.22;4480234;32;20104;-68
2023/03/21 11:14:26;;;;;;;2.67;1.87;;;;;;;16.06;51.18;98676.78;4481197;32;20144;-70
2023/03/21 11:16:53;;;;;;;3.85;1.60;;;;;;;15.96;51.19;98670.94;4481504;31;20188;-68
2023/03/21 11:19:32;;;;;;;6.12;2.35;;;;;;;16.28;51.71;98655.84;4477435;31;20161;-67
2023/03/21 11:22:05;;;;;;;4.28;2.65;;;;;;;16.18;49.12;98664.00;4479641;32;20121;-68
2023/03/21 11:24:34;;;;;;;4.10;2.20;;;;;;;16.08;50.84;98658.97;4473961;32;20096;-67
2023/03/21 11:27:06;;;;;;;3.00;2.35;;;;;;;16.20;50.10;98653.25;4479419;31;20104;-69
2023/03/21 11:29:39;;;;;;;4.45;2.85;;;;;;;16.35;51.38;98654.16;4480933;32;20096;-68
2023/03/21 11:32:15;;;;;;;8.88;3.75;;;;;;;16.51;52.06;98650.53;4477558;31;20131;-69
2023/03/21 11:34:47;;;;;;;4.60;2.92;;;;;;;16.31;52.44;98650.22;4469225;32;20108;-68
2023/03/21 11:37:38;;;;;;;3.00;2.20;;;;;;;16.30;51.91;98645.91;4478159;32;20477;-66
2023/03/21 11:40:20;;;;;;;3.22;1.90;;;;;;;16.08;49.52;98637.81;4467537;31;20155;-68
2023/03/21 11:42:54;;;;;;;2.58;1.65;;;;;;;16.02;48.23;98651.75;4480993;32;20136;-67
2023/03/21 11:45:30;;;;;;;2.60;1.75;;;;;;;16.14;45.80;98646.88;4479262;31;20096;-65
2023/03/21 11:47:59;;;;;;;1.92;1.45;;;;;;;16.28;46.93;98650.56;4481606;31;20122;-64
2023/03/21 11:50:32;;;;;;;2.92;1.60;;;;;;;16.19;46.42;98649.00;4480515;32;20134;-66
2023/03/21 11:53:16;;;;;;;2.83;1.90;;;;;;;16.49;47.78;98645.44;4481529;32;20441;-65